EST,Max TemperatureF,Mean TemperatureF,Min TemperatureF,Max Dew PointF,MeanDew PointF,Min DewpointF,Max Humidity, Mean Humidity, Min Humidity, Max Sea Level PressureIn, Mean Sea Level PressureIn, Min Sea Level PressureIn, Max VisibilityMiles, Mean VisibilityMiles, Min VisibilityMiles, Max Wind SpeedMPH, Mean Wind SpeedMPH, Max Gust SpeedMPH,PrecipitationIn, CloudCover, Events, WindDirDegrees
2013-12-1,48,42,37,47,41,27,96,83,65,30.46,30.15,29.97,10,9,2,12,8,21,0.25,6,Rain,150
2013-12-2,46,42,39,46,41,36,100,93,82,29.98,29.96,29.90,10,5,0,7,3,,0.00,8,Fog,326
2013-12-3,45,40,33,39,38,31,93,86,79,29.93,29.86,29.81,10,9,2,9,5,22,0.00,6,,329
2013-12-4,44,37,30,33,29,26,92,75,49,30.23,30.10,29.95,10,9,3,9,4,17,0.00,0,,286
2013-12-5,52,42,32,51,45,29,97,90,80,30.23,30.10,29.99,10,6,0,10,5,20,0.00,7,Fog-Rain,165
2013-12-6,55,47,39,55,46,36,100,93,82,30.11,29.99,29.93,10,4,0,13,8,23,0.31,8,Fog-Rain,246
2013-12-7,41,38,34,37,32,17,97,82,48,30.44,30.17,30.05,10,7,2,10,6,21,0.27,7,Rain,334
2013-12-8,35,32,28,21,18,16,69,56,46,30.58,30.53,30.45,10,10,10,8,3,,0.00,5,,16
2013-12-9,48,41,34,47,38,25,100,91,70,30.48,30.11,29.85,10,4,1,21,11,34,0.32,8,Rain-Snow,105
2013-12-10,39,34,28,36,30,18,96,88,65,30.01,29.86,29.79,10,5,0,10,5,24,0.19,6,Fog-Snow,286
2013-12-11,34,30,25,19,17,13,75,60,43,30.26,30.18,30.04,10,10,10,15,9,24,0.00,1,,267
2013-12-12,28,23,18,17,8,2,66,51,37,30.25,30.20,30.13,10,10,10,12,6,24,0.00,2,,297
2013-12-13,32,24,16,15,9,4,63,51,38,30.35,30.13,30.03,10,10,10,12,5,23,0.00,2,,270
2013-12-14,33,27,21,31,19,7,92,74,53,30.57,30.45,30.17,10,4,0,21,9,33,0.04,8,Fog-Snow,67
2013-12-15,51,39,27,49,36,20,100,90,66,30.14,29.65,29.31,10,5,0,28,17,40,0.56,7,Fog-Rain-Snow,164
2013-12-16,32,28,23,21,11,5,72,51,35,30.22,29.99,29.79,10,10,10,15,7,25,0.00,2,,279
2013-12-17,43,30,16,41,25,5,97,79,39,30.28,30.05,29.83,10,7,0,15,7,25,0.11,6,Fog-Rain-Snow,119
2013-12-18,39,34,28,37,28,19,93,82,56,30.11,29.87,29.75,10,7,0,17,9,32,0.01,6,Fog-Snow,312
2013-12-19,45,36,28,35,28,20,76,67,58,30.14,30.09,30.01,10,10,10,14,7,24,0.00,1,,245
2013-12-20,48,40,33,43,38,29,93,84,76,30.16,30.08,30.00,10,9,6,12,5,22,0.00,0,,217
2013-12-21,50,48,45,46,45,43,97,93,83,30.05,30.00,29.96,7,4,1,13,9,24,0.00,7,Rain,223
2013-12-22,54,50,45,52,48,44,100,96,93,30.02,29.95,29.90,10,3,0,14,9,26,0.01,5,Fog-Rain,235
2013-12-23,48,44,39,46,43,37,97,93,92,30.06,30.02,29.94,10,5,1,8,2,,0.37,8,Rain,349
2013-12-24,41,34,28,39,31,18,97,84,56,30.17,30.09,30.00,10,7,0,12,7,23,0.28,8,Fog-Rain-Snow,336
2013-12-25,30,24,19,18,14,9,78,66,49,30.55,30.43,30.19,10,8,2,13,8,25,0.00,8,Snow,320
2013-12-26,39,30,21,36,29,16,96,84,62,30.51,30.23,30.06,10,8,2,10,4,21,0.23,6,Rain,247
2013-12-27,37,32,27,24,20,18,85,66,50,30.29,30.26,30.22,10,10,10,10,5,20,0.00,0,,270
2013-12-28,46,37,28,35,30,20,89,71,56,30.26,30.15,30.04,10,10,10,16,7,33,0.00,1,,238
2013-12-29,52,44,37,50,43,36,97,92,82,30.07,29.66,29.31,10,5,1,20,8,36,0.94,6,Rain,197
2013-12-30,44,36,27,40,29,12,93,73,46,30.14,29.82,29.41,10,10,8,15,9,28,0.00,4,,304
2013-12-31,28,24,19,23,17,6,88,70,41,30.18,30.10,30.03,10,7,1,9,6,20,0.01,5,Snow,303